Latest Coastal Weather Observations for Cocos Island

IDW60701

Issued at 3:05 pm WST Wednesday 3 September 2014 (issued every 10 minutes, with the page automatically refreshed every 10 minutes)

About coastal observations | Map of coastal stations | Coastal observations for WA | Marine services | Other Formats
Station Details ID: 200284 Name: COCOS ISLAND AIRPORT Lat: -12.19 Lon: 96.83 Height: 3.0 m
Data from the previous 72 hours. | See also: Recent months at Cocos Island
Date/Time
WST
Temp

°C
Wind Pressure Rain
since 9am
mm
Weather Cloud Vis
km
Sea
Height
m
Swell
Dir
 
Speed
knots
Gust
knots
hPa Trend Height
m
Period
s
Dir
03/03:00pm 27.7 SW 5 8 1012.2 - 0.0 - Partly cloudy 10 - - - -
03/02:30pm 27.0 NW 3 4 1012.5 - 0.0 Drizzle Mostly clear 10 - - - -
03/02:00pm 26.4 NNE 8 10 1012.8 - 0.0 Drizzle Cloudy 14 - - - -
03/01:30pm 26.9 NE 8 11 1013.2 - 0.0 - Partly cloudy 10 - - - -
03/01:00pm 26.9 NE 7 9 1013.5 - 0.0 - Mostly clear 10 - - - -
03/12:30pm 27.3 N 3 4 1013.8 - 0.0 - Partly cloudy 10 - - - -
03/12:00pm 27.1 NNE 4 5 1014.1 - 0.0 - Partly cloudy 10 - - - -
03/11:30am 26.0 N 7 8 1014.2 - 0.0 Showers Partly cloudy 10 - - - -
03/11:00am 26.2 N 8 10 1014.2 - 0.2 Distant precip. Cloudy 14 - - - -
03/10:30am 25.9 NNE 9 10 1014.2 - 0.2 - Partly cloudy 10 - - - -
03/10:10am 26.7 E 7 8 1014.1 - 0.2 Showers Partly cloudy 10 - - - -
03/10:00am 26.8 E 6 8 1013.9 - 0.2 Showers Mostly clear 10 - - - -
03/09:30am 26.8 SE 6 7 1013.6 - 0.2 - Partly cloudy 10 - - - -
03/09:00am 26.4 SE 5 7 1013.4 - 0.2 - - 10 - - - -
03/08:30am 25.8 SE 5 6 1013.0 - 0.2 - - 10 - - - -
03/08:00am 25.6 SSE 5 6 1012.6 - 0.2 Distant precip. Partly cloudy 16 - - - -
03/07:30am 25.5 SSE 5 6 1012.2 - 0.2 - Partly cloudy 10 - - - -
03/07:00am 25.2 SSE 5 7 1011.7 - 0.2 - Mostly clear 10 - - - -
03/06:30am 24.7 S 5 6 1011.4 - 0.2 - Partly cloudy 10 - - - -
03/06:00am 24.7 S 4 5 1011.2 - 0.2 - Partly cloudy 10 - - - -
03/05:30am 24.8 S 4 6 1011.1 - 0.2 - - 10 - - - -
03/05:00am 25.0 SSW 3 4 1011.0 - 0.2 - - 10 - - - -
03/04:30am 25.5 SSW 5 7 1010.9 - 0.2 - Partly cloudy 10 - - - -
03/04:00am 25.5 SW 5 6 1011.0 - 0.2 - Partly cloudy 10 - - - -
03/03:30am 25.7 WSW 5 5 1011.2 - 0.2 - - 10 - - - -
03/03:00am 25.7 WSW 4 5 1011.5 - 0.2 - - 10 - - - -
03/02:30am 25.7 W 4 5 1011.7 - 0.2 - - 10 - - - -
03/02:00am 25.7 W 5 7 1011.9 - 0.2 - - 10 - - - -
03/01:30am 25.7 W 6 8 1012.2 - 0.2 - Partly cloudy 9 - - - -
03/01:00am 25.7 W 7 9 1012.4 - 0.2 - Partly cloudy 10 - - - -
03/12:30am 26.0 W 8 10 1012.7 - 0.2 - Partly cloudy 10 - - - -
03/12:00am 25.6 NW 4 6 1012.9 - 0.2 - Partly cloudy 10 - - - -
 
Date/Time
WST
Temp

°C
Wind Pressure Rain
since 9am
mm
Weather Cloud Vis
km
Sea
Height
m
Swell
Dir
 
Speed
knots
Gust
knots
hPa Trend Height
m
Period
s
Dir
02/11:30pm 25.7 NNW 3 5 1012.9 - 0.2 - Partly cloudy 10 - - - -
02/11:00pm 26.2 NNW 3 5 1012.9 - 0.2 - - 10 - - - -
02/10:30pm 26.2 NNW 4 5 1012.9 - 0.2 - Partly cloudy 10 - - - -
02/10:00pm 26.2 NNW 4 5 1012.8 - 0.2 - Partly cloudy 10 - - - -
02/09:30pm 26.2 NNW 4 6 1012.4 - 0.2 - - 10 - - - -
02/09:00pm 26.2 NNW 4 5 1012.1 - 0.2 - Partly cloudy 10 - - - -
02/08:30pm 26.6 N 4 6 1011.9 - 0.2 - Partly cloudy 10 - - - -
02/08:00pm 26.5 NNW 4 6 1011.7 - 0.2 - Cloudy 10 - - - -
02/07:30pm 26.7 NNW 5 6 1011.5 - 0.2 - Partly cloudy 10 - - - -
02/07:00pm 27.1 NNW 7 9 1011.1 - 0.2 - - 10 - - - -
02/06:30pm 27.7 NNW 7 10 1010.9 - 0.2 - Partly cloudy 10 - - - -
02/06:00pm 27.5 NNW 8 12 1010.7 - 0.2 - Partly cloudy 10 - - - -
02/05:30pm 27.7 NNW 8 10 1010.5 - 0.2 - Partly cloudy 10 - - - -
02/05:00pm 28.2 NNW 9 11 1010.5 - 0.2 Distant precip. Mostly cloudy 16 - - - -
02/04:30pm 28.7 NNW 8 11 1010.3 - 0.2 - Partly cloudy 10 - - - -
02/04:00pm 28.6 NNW 10 14 1010.3 - 0.2 - Partly cloudy 10 - - - -
02/03:31pm 28.9 NNW 9 12 1010.6 - 0.2 - Partly cloudy 10 - - - -
02/03:30pm 28.8 NNW 9 12 1010.6 - 0.2 - Partly cloudy 10 - - - -
02/03:00pm 26.5 WSW 5 9 1011.1 - 0.2 - Partly cloudy 10 - - - -
02/02:56pm 26.2 WSW 5 11 1011.1 - 0.2 - Partly cloudy 10 - - - -
02/02:30pm 27.8 N 6 8 1011.2 - 0.2 - Partly cloudy 10 - - - -
02/02:00pm 27.7 N 6 8 1011.4 - 0.2 Distant precip. Cloudy 12 - - - -
02/01:30pm 27.7 NNW 6 8 1011.8 - 0.2 - Partly cloudy 10 - - - -
02/01:00pm 27.6 NNW 6 9 1012.1 - 0.2 - Partly cloudy 10 - - - -
02/12:30pm 27.7 NNW 7 10 1012.3 - 0.0 - Partly cloudy 10 - - - -
02/12:00pm 27.4 NNW 7 10 1012.6 - 0.0 - Mostly clear 10 - - - -
02/11:30am 27.2 NNW 7 8 1012.7 - 0.0 - Mostly clear 10 - - - -
02/11:00am 26.9 NW 8 10 1012.9 - 4.0 Distant precip. Mostly cloudy 14 - - - -
02/10:30am 26.7 NW 8 10 1012.5 - 4.0 - Partly cloudy 10 - - - -
02/10:00am 26.4 NW 8 11 1012.1 - 4.0 Drizzle Partly cloudy 10 - - - -
02/09:30am 26.2 NW 10 14 1011.6 - 4.0 - Partly cloudy 10 - - - -
02/09:00am 26.0 NW 11 15 1010.9 - 4.0 - Partly cloudy 10 - - - -
02/08:30am 25.8 NW 11 15 1010.5 - 4.0 - Mostly clear 10 - - - -
02/08:00am 25.7 NW 9 11 1010.3 - 4.0 Distant precip. Partly cloudy 12 - - - -
02/07:30am 25.4 NW 12 16 1010.0 - 4.0 - Mostly clear 10 - - - -
02/07:00am 25.5 NW 10 14 1009.6 - 4.0 - Partly cloudy 10 - - - -
02/06:35am 25.3 NNW 8 14 1009.5 - 4.0 - Partly cloudy 10 - - - -
02/06:30am 25.1 N 6 10 1009.5 - 4.0 - Partly cloudy 10 - - - -
02/06:00am 24.6 NNW 11 16 1009.5 - 1.8 - Partly cloudy 4 - - - -
02/05:56am 25.3 NNW 12 16 1009.4 - 0.4 - Partly cloudy 7 - - - -
02/05:30am 26.9 NE 10 14 1009.2 - 0.0 - Partly cloudy 10 - - - -
02/05:00am 26.7 NE 11 13 1009.1 - 0.0 - Cloudy 10 - - - -
02/04:30am 26.9 NNE 12 14 1009.2 - 0.0 - Partly cloudy 10 - - - -
02/04:00am 26.9 NNE 11 13 1009.4 - 0.0 - Partly cloudy 10 - - - -
02/03:30am 26.9 NNE 12 15 1009.8 - 0.0 - Partly cloudy 10 - - - -
02/03:00am 26.9 N 13 16 1010.2 - 0.0 - Partly cloudy 10 - - - -
02/02:30am 27.0 NNE 14 17 1010.5 - 0.0 - Partly cloudy 10 - - - -
02/02:00am 27.0 NNE 13 15 1010.7 - 0.0 - Cloudy 10 - - - -
02/01:30am 27.2 N 14 16 1011.0 - 0.0 - Partly cloudy 10 - - - -
02/01:00am 27.2 NNE 14 17 1011.1 - 0.0 - - 10 - - - -
02/12:30am 27.2 NNE 16 19 1011.0 - 0.0 - - 10 - - - -
02/12:00am 27.2 NNE 14 17 1011.4 - 0.0 - Partly cloudy 10 - - - -
 
Date/Time
WST
Temp

°C
Wind Pressure Rain
since 9am
mm
Weather Cloud Vis
km
Sea
Height
m
Swell
Dir
 
Speed
knots
Gust
knots
hPa Trend Height
m
Period
s
Dir
01/11:30pm 27.2 NNE 14 16 1011.6 - 0.0 - - 10 - - - -
01/11:00pm 27.2 NNE 14 15 1011.5 - 0.0 - - 10 - - - -
01/10:30pm 27.3 NNE 13 15 1011.6 - 0.0 - - 10 - - - -
01/10:00pm 27.5 NNE 12 14 1011.6 - 0.0 - - 10 - - - -
01/09:30pm 27.4 NNE 11 13 1011.4 - 0.0 - Partly cloudy 10 - - - -
01/09:00pm 27.4 NNE 12 14 1011.2 - 0.0 - Partly cloudy 10 - - - -
01/08:30pm 27.4 NNE 11 15 1010.7 - 0.0 - Partly cloudy 10 - - - -
01/08:00pm 27.5 NNE 12 16 1010.2 - 0.0 - - 10 - - - -
01/07:30pm 27.6 NNE 13 16 1009.7 - 0.0 - - 10 - - - -
01/07:00pm 27.8 NE 12 15 1009.3 - 0.0 - - 10 - - - -
01/06:30pm 27.9 NNE 14 17 1008.9 - 0.0 - Partly cloudy 10 - - - -
01/06:00pm 28.2 NNE 15 18 1008.8 - 0.0 - Mostly clear 10 - - - -
01/05:30pm 28.3 NNE 14 18 1008.6 - 0.0 - Mostly clear 10 - - - -
01/05:00pm 28.8 NE 15 19 1008.5 - 0.0 Fine Mostly clear 30 - - - -
01/04:30pm 28.7 NE 13 18 1008.6 - 0.0 - Mostly clear 10 - - - -
01/04:00pm 28.5 NE 14 17 1008.7 - 0.0 - Mostly clear 10 - - - -
01/03:30pm 28.7 NE 14 18 1009.0 - 0.0 - Partly cloudy 10 - - - -
01/03:00pm 28.7 NE 15 18 1009.3 - 0.0 - Mostly clear 10 - - - -
01/02:30pm 28.8 NE 15 19 1009.5 - 0.0 - Mostly clear 10 - - - -
01/02:00pm 28.5 NE 16 19 1009.8 - 0.0 Fine Partly cloudy 30 - - - -
01/01:30pm 28.0 NE 16 18 1010.0 - 0.0 - Partly cloudy 10 - - - -
01/01:00pm 28.1 NE 14 17 1010.4 - 0.0 - Mostly clear 10 - - - -
01/12:30pm 28.0 NE 15 17 1010.7 - 0.0 - Mostly clear 10 - - - -
01/12:00pm 27.9 NE 15 18 1011.2 - 0.0 - Mostly clear 10 - - - -
01/11:30am 27.8 ENE 16 18 1011.4 - 0.0 - Mostly clear 10 - - - -
01/11:00am 27.8 ENE 16 18 1011.4 - 0.0 Fine Mostly clear 30 - - - -
01/10:30am 27.4 E 12 14 1011.4 - 0.0 - Mostly clear 10 - - - -
01/10:00am 25.8 E 9 12 1011.4 - - - Mostly clear 10 - - - -
01/09:30am 24.9 E 13 15 1011.1 - - - Mostly clear 10 - - - -
01/09:00am 25.2 NE 15 17 1011.0 - 0.0 Drizzle Mostly clear 10 - - - -
01/08:30am 25.2 NE 16 18 1010.7 - 0.0 - Mostly clear 10 - - - -
01/08:00am 25.3 NE 16 18 1010.5 - 0.0 Distant precip. Mostly cloudy 25 - - - -
01/07:30am 25.6 NE 15 17 1010.2 - 0.0 - Mostly clear 10 - - - -
01/07:00am 26.3 ENE 10 11 1010.1 - 0.0 - Mostly clear 10 - - - -
01/06:30am 26.2 ENE 9 10 1009.8 - 0.0 - - 10 - - - -
01/06:00am 26.3 ENE 10 11 1009.7 - 0.0 - Partly cloudy 10 - - - -
01/05:30am 26.5 ENE 9 11 1009.7 - 0.0 - Partly cloudy 10 - - - -
01/05:00am 26.5 ENE 10 11 1009.8 - 0.0 - Cloudy 10 - - - -
01/04:30am 26.4 ENE 9 10 1009.8 - 0.0 - Partly cloudy 10 - - - -
01/04:00am 26.6 ENE 9 11 1009.9 - 0.0 - Partly cloudy 10 - - - -
01/03:30am 26.5 ENE 8 10 1010.1 - 0.0 - Partly cloudy 10 - - - -
01/03:00am 26.5 ENE 10 11 1010.2 - 0.0 - - 10 - - - -
01/02:30am 26.5 ENE 9 11 1010.4 - 0.0 - - 10 - - - -
01/02:00am 26.7 ENE 11 13 1010.4 - 0.0 - - 10 - - - -
01/01:30am 26.9 NE 13 15 1010.5 - 0.0 - - 10 - - - -
01/01:00am 26.9 NE 14 17 1010.7 - 0.0 - Partly cloudy 10 - - - -
01/12:30am 27.0 ENE 13 16 1010.8 - 0.0 - Partly cloudy 10 - - - -
01/12:00am 26.8 ENE 13 14 1010.6 - 0.0 - - 10 - - - -
 
Date/Time
WST
Temp

°C
Wind Pressure Rain
since 9am
mm
Weather Cloud Vis
km
Sea
Height
m
Swell
Dir
 
Speed
knots
Gust
knots
hPa Trend Height
m
Period
s
Dir
31/11:30pm 27.0 ENE 12 14 1011.0 - 0.0 - - 10 - - - -
31/11:00pm 27.0 ENE 12 13 1011.1 - 0.0 - - 10 - - - -
31/10:30pm 27.1 ENE 12 14 1010.8 - 0.0 - - 10 - - - -
31/10:00pm 27.1 ENE 13 15 1010.6 - 0.0 - - 10 - - - -
31/09:30pm 27.2 ENE 13 16 1010.2 - 0.0 - - 10 - - - -
31/09:00pm 27.2 ENE 15 17 1009.8 - 0.0 - Partly cloudy 10 - - - -
31/08:30pm 27.2 ENE 15 17 1009.5 - 0.0 - Partly cloudy 10 - - - -
31/08:00pm 27.4 ENE 14 16 1009.3 - 0.0 - Cloudy 10 - - - -
31/07:30pm 27.4 ENE 15 18 1008.9 - 0.0 - Partly cloudy 10 - - - -
31/07:00pm 27.5 ENE 16 18 1008.6 - 0.0 - Partly cloudy 10 - - - -
31/06:30pm 27.8 ENE 13 16 1008.8 - 0.0 - - 10 - - - -
31/06:00pm 28.1 NE 14 17 1008.6 - 0.0 - Mostly clear 10 - - - -
31/05:30pm 28.2 NE 15 17 1008.8 - 0.0 - Mostly clear 10 - - - -
31/05:00pm 28.2 NE 15 17 1009.0 - 0.0 Fine Mostly clear 30 - - - -
31/04:59pm 28.4 NE 14 17 1009.0 - 0.0 - - 10 - - - -
31/04:36pm 28.4 NE 15 18 1009.1 - 0.0 - - 7 - - - -

Other Formats:

Comma delimited format used in spreadsheet applications
http://www.bom.gov.au/fwo/IDW60701/IDW60701.96996.axf

JavaScript Object Notation format (JSON) in row-major order
http://www.bom.gov.au/fwo/IDW60701/IDW60701.96996.json